createdAt,value
2023-03-20T00:02:06.885Z,100517.47
2023-03-20T00:04:34.213Z,100526.09
2023-03-20T00:07:00.900Z,100535.59
2023-03-20T00:09:28.372Z,100536.94
2023-03-20T00:11:56.138Z,100537.81
2023-03-20T00:14:24.900Z,100536.94
2023-03-20T00:16:52.314Z,100538.13
2023-03-20T00:19:23.238Z,100529.06
2023-03-20T00:21:51.009Z,100534.38
2023-03-20T00:24:17.730Z,100540.63
2023-03-20T00:26:46.493Z,100539.78
2023-03-20T00:29:21.486Z,100533.03
2023-03-20T00:31:49.013Z,100531.00
2023-03-20T00:34:17.552Z,100532.72
2023-03-20T00:36:44.193Z,100537.34
2023-03-20T00:39:10.990Z,100534.06
2023-03-20T00:41:43.029Z,100537.16
2023-03-20T00:44:23.989Z,100532.47
2023-03-20T00:47:00.607Z,100532.16
2023-03-20T00:49:35.334Z,100535.44
2023-03-20T00:52:03.496Z,100527.44
2023-03-20T00:54:30.897Z,100541.78
2023-03-20T00:57:09.231Z,100530.72
2023-03-20T00:59:41.894Z,100548.16
2023-03-20T01:02:11.730Z,100547.84
2023-03-20T01:04:42.291Z,100547.19
2023-03-20T01:07:14.042Z,100549.19
2023-03-20T01:09:41.740Z,100551.81
2023-03-20T01:12:12.335Z,100561.47
2023-03-20T01:14:39.220Z,100556.91
2023-03-20T01:17:06.037Z,100558.16
2023-03-20T01:19:32.766Z,100556.63
2023-03-20T01:21:59.471Z,100556.50
2023-03-20T01:24:26.223Z,100564.91
2023-03-20T01:26:54.789Z,100572.28
2023-03-20T01:29:21.457Z,100564.78
2023-03-20T01:31:49.228Z,100566.47
2023-03-20T01:34:19.400Z,100564.69
2023-03-20T01:36:51.021Z,100565.91
2023-03-20T01:39:19.296Z,100584.22
2023-03-20T01:41:47.267Z,100588.91
2023-03-20T01:44:22.257Z,100580.56
2023-03-20T01:46:51.904Z,100576.19
2023-03-20T01:49:21.660Z,100582.84
2023-03-20T01:51:50.387Z,100573.59
2023-03-20T01:54:30.945Z,100574.94
2023-03-20T01:57:03.393Z,100559.75
2023-03-20T01:59:36.399Z,100568.56
2023-03-20T02:02:05.564Z,100552.09
2023-03-20T02:04:44.367Z,100552.34
2023-03-20T02:07:13.554Z,100557.88
2023-03-20T02:09:40.295Z,100554.72
2023-03-20T02:12:07.048Z,100559.53
2023-03-20T02:14:33.763Z,100551.13
2023-03-20T02:17:01.871Z,100546.88
2023-03-20T02:19:42.740Z,100545.94
2023-03-20T02:22:30.593Z,100541.03
2023-03-20T02:25:18.826Z,100538.16
2023-03-20T02:28:23.071Z,100544.72
2023-03-20T02:30:58.832Z,100550.81
2023-03-20T02:33:37.126Z,100541.03
2023-03-20T02:36:13.436Z,100534.78
2023-03-20T02:39:11.334Z,100534.25
2023-03-20T02:41:52.968Z,100529.63
2023-03-20T02:44:34.421Z,100528.53
2023-03-20T02:47:26.631Z,100527.00
2023-03-20T02:50:07.755Z,100524.84
2023-03-20T02:52:34.381Z,100525.38
2023-03-20T02:55:39.927Z,100526.16
2023-03-20T02:58:20.773Z,100505.34
2023-03-20T03:01:01.688Z,100507.16
2023-03-20T03:03:43.198Z,100493.38
2023-03-20T03:06:13.487Z,100486.34
2023-03-20T03:08:45.731Z,100481.13
2023-03-20T03:11:12.813Z,100469.88
2023-03-20T03:13:45.978Z,100472.47
2023-03-20T03:16:19.753Z,100463.97
2023-03-20T03:18:47.709Z,100455.69
2023-03-20T03:21:17.514Z,100466.78
2023-03-20T03:23:49.132Z,100453.19
2023-03-20T03:26:22.834Z,100449.91
2023-03-20T03:28:58.003Z,100451.44
2023-03-20T03:31:25.784Z,100440.38
2023-03-20T03:33:56.167Z,100445.00
2023-03-20T03:36:43.080Z,100441.94
2023-03-20T03:39:18.520Z,100441.34
2023-03-20T03:42:11.489Z,100438.84
2023-03-20T03:45:15.778Z,100429.78
2023-03-20T03:47:52.138Z,100426.59
2023-03-20T03:50:48.292Z,100383.22
2023-03-20T03:53:20.310Z,100391.44
2023-03-20T03:55:52.689Z,100393.16
2023-03-20T03:58:27.752Z,100401.53
2023-03-20T04:00:57.742Z,100393.56
2023-03-20T04:03:31.529Z,100392.88
2023-03-20T04:05:59.684Z,100392.28
2023-03-20T04:08:26.959Z,100396.66
2023-03-20T04:10:53.657Z,100384.88
2023-03-20T04:13:20.411Z,100376.47
2023-03-20T04:15:47.346Z,100370.63
2023-03-20T04:18:19.436Z,100377.75
2023-03-20T04:20:47.318Z,100378.16
2023-03-20T04:23:14.731Z,100369.75
2023-03-20T04:25:41.662Z,100372.38
2023-03-20T04:28:08.529Z,100373.41
2023-03-20T04:30:35.405Z,100380.22
2023-03-20T04:33:02.091Z,100375.13
2023-03-20T04:35:28.908Z,100378.31
2023-03-20T04:37:55.566Z,100367.72
2023-03-20T04:40:22.296Z,100368.22
2023-03-20T04:42:49.013Z,100364.53
2023-03-20T04:45:15.804Z,100352.69
2023-03-20T04:47:42.495Z,100354.63
2023-03-20T04:50:09.810Z,100358.19
2023-03-20T04:52:36.473Z,100358.47
2023-03-20T04:55:03.309Z,100344.63
2023-03-20T04:57:31.930Z,100346.53
2023-03-20T04:59:58.839Z,100342.56
2023-03-20T05:02:25.582Z,100349.69
2023-03-20T05:04:52.280Z,100344.41
2023-03-20T05:07:19.043Z,100350.00
2023-03-20T05:09:46.000Z,100344.81
2023-03-20T05:12:13.220Z,100344.31
2023-03-20T05:14:40.011Z,100341.97
2023-03-20T05:17:06.836Z,100331.19
2023-03-20T05:19:33.605Z,100336.50
2023-03-20T05:22:01.243Z,100335.72
2023-03-20T05:24:29.134Z,100330.53
2023-03-20T05:26:55.856Z,100333.78
2023-03-20T05:29:22.640Z,100329.34
2023-03-20T05:31:49.357Z,100326.06
2023-03-20T05:34:16.229Z,100334.56
2023-03-20T05:36:42.953Z,100274.03
2023-03-20T05:39:09.645Z,100276.25
2023-03-20T05:41:37.125Z,100269.41
2023-03-20T05:44:04.369Z,100269.41
2023-03-20T05:46:31.300Z,100270.38
2023-03-20T05:48:58.068Z,100275.00
2023-03-20T05:51:24.864Z,100273.91
2023-03-20T05:53:51.534Z,100255.50
2023-03-20T05:56:18.322Z,100255.09
2023-03-20T05:58:45.295Z,100255.38
2023-03-20T06:01:19.834Z,100245.47
2023-03-20T06:03:46.593Z,100244.91
2023-03-20T06:06:13.346Z,100245.75
2023-03-20T06:08:40.669Z,100236.91
2023-03-20T06:11:07.750Z,100241.03
2023-03-20T06:13:34.421Z,100253.00
2023-03-20T06:16:01.298Z,100250.50
2023-03-20T06:18:28.042Z,100254.63
2023-03-20T06:20:56.361Z,100263.94
2023-03-20T06:23:23.075Z,100257.22
2023-03-20T06:25:50.602Z,100262.16
2023-03-20T06:28:18.463Z,100263.06
2023-03-20T06:30:45.126Z,100273.31
2023-03-20T06:33:11.906Z,100272.03
2023-03-20T06:35:39.257Z,100260.97
2023-03-20T06:38:06.376Z,100268.47
2023-03-20T06:40:33.281Z,100261.03
2023-03-20T06:42:59.984Z,100266.66
2023-03-20T06:45:26.781Z,100264.91
2023-03-20T06:47:53.452Z,100261.34
2023-03-20T06:50:20.173Z,100256.69
2023-03-20T06:52:47.491Z,100263.06
2023-03-20T06:55:14.618Z,100261.72
2023-03-20T06:57:41.367Z,100258.91
2023-03-20T07:00:10.245Z,100262.34
2023-03-20T07:02:36.964Z,100264.00
2023-03-20T07:05:04.015Z,100259.03
2023-03-20T07:07:30.726Z,100254.53
2023-03-20T07:09:57.397Z,100257.84
2023-03-20T07:12:28.490Z,100261.25
2023-03-20T07:14:56.134Z,100268.03
2023-03-20T07:17:23.434Z,100273.78
2023-03-20T07:19:50.287Z,100283.06
2023-03-20T07:22:26.227Z,100279.81
2023-03-20T07:24:53.118Z,100295.81
2023-03-20T07:27:20.153Z,100294.28
2023-03-20T07:29:46.894Z,100299.59
2023-03-20T07:32:13.739Z,100311.81
2023-03-20T07:34:40.489Z,100324.56
2023-03-20T07:37:07.310Z,100327.16
2023-03-20T07:39:34.056Z,100331.47
2023-03-20T07:42:00.824Z,100338.41
2023-03-20T07:44:27.620Z,100345.56
2023-03-20T07:46:54.300Z,100349.03
2023-03-20T07:49:21.048Z,100347.09
2023-03-20T07:51:48.848Z,100357.50
2023-03-20T07:54:16.721Z,100360.41
2023-03-20T07:56:43.593Z,100373.91
2023-03-20T07:59:10.265Z,100376.00
2023-03-20T08:01:37.026Z,100375.53
2023-03-20T08:04:03.887Z,100385.91
2023-03-20T08:06:30.983Z,100389.28
2023-03-20T08:08:57.894Z,100406.56
2023-03-20T08:11:24.612Z,100433.84
2023-03-20T08:13:51.623Z,100433.84
2023-03-20T08:16:18.363Z,100438.38
2023-03-20T08:18:45.290Z,100451.88
2023-03-20T08:21:12.035Z,100465.59
2023-03-20T08:23:38.747Z,100471.91
2023-03-20T08:26:05.466Z,100472.75
2023-03-20T08:28:46.602Z,100472.53
2023-03-20T08:31:14.682Z,100480.56
2023-03-20T08:33:41.534Z,100478.63
2023-03-20T08:36:08.645Z,100491.47
2023-03-20T08:38:35.955Z,100490.41
2023-03-20T08:41:02.707Z,100503.16
2023-03-20T08:43:29.881Z,100496.88
2023-03-20T08:45:56.798Z,100500.44
2023-03-20T08:48:23.634Z,100516.47
2023-03-20T08:50:50.519Z,100517.31
2023-03-20T08:53:17.232Z,100514.97
2023-03-20T08:55:53.489Z,100520.59
2023-03-20T08:58:21.438Z,100522.31
2023-03-20T09:00:48.085Z,100528.59
2023-03-20T09:03:17.570Z,100535.94
2023-03-20T09:05:46.109Z,100531.31
2023-03-20T09:08:13.818Z,100533.13
2023-03-20T09:10:40.887Z,100524.72
2023-03-20T09:13:25.636Z,100528.00
2023-03-20T09:15:53.930Z,100541.50
2023-03-20T09:18:21.561Z,100544.22
2023-03-20T09:20:49.165Z,100541.22
2023-03-20T09:23:16.041Z,100546.84
2023-03-20T09:25:42.776Z,100544.63
2023-03-20T09:28:09.500Z,100549.06
2023-03-20T09:30:37.326Z,100553.50
2023-03-20T09:33:04.260Z,100564.78
2023-03-20T09:35:31.423Z,100558.06
2023-03-20T09:37:58.239Z,100549.81
2023-03-20T09:40:28.223Z,100561.41
2023-03-20T09:43:10.191Z,100565.56
2023-03-20T09:46:04.452Z,100561.41
2023-03-20T09:48:43.282Z,100566.03
2023-03-20T09:51:13.023Z,100561.59
2023-03-20T09:53:46.388Z,100568.06
2023-03-20T09:56:26.906Z,100560.19
2023-03-20T09:58:56.972Z,100554.28
2023-03-20T10:01:30.410Z,100558.78
2023-03-20T10:04:04.622Z,100572.31
2023-03-20T10:06:31.304Z,100570.59
2023-03-20T10:08:58.321Z,100565.66
2023-03-20T10:12:03.746Z,100569.72
2023-03-20T10:14:52.859Z,100572.03
2023-03-20T10:17:43.829Z,100564.88
2023-03-20T10:20:36.852Z,100561.16
2023-03-20T10:23:13.472Z,100564.53
2023-03-20T10:25:46.126Z,100576.41
2023-03-20T10:28:22.130Z,100572.84
2023-03-20T10:31:13.256Z,100584.31
2023-03-20T10:34:07.116Z,100579.22
2023-03-20T10:36:54.033Z,100585.50
2023-03-20T10:39:38.795Z,100580.34
2023-03-20T10:42:15.378Z,100586.81
2023-03-20T10:44:49.858Z,100574.38
2023-03-20T10:47:21.837Z,100575.28
2023-03-20T10:50:00.359Z,100573.69
2023-03-20T10:52:32.332Z,100579.16
2023-03-20T10:55:05.522Z,100575.91
2023-03-20T10:57:37.573Z,100576.19
2023-03-20T11:00:10.989Z,100571.88
2023-03-20T11:02:37.995Z,100578.13
2023-03-20T11:05:20.339Z,100577.94
2023-03-20T11:07:49.232Z,100577.50
2023-03-20T11:10:17.265Z,100577.22
2023-03-20T11:12:46.651Z,100577.91
2023-03-20T11:15:33.476Z,100575.91
2023-03-20T11:18:05.555Z,100576.31
2023-03-20T11:20:56.572Z,100571.25
2023-03-20T11:23:31.370Z,100582.16
2023-03-20T11:26:01.124Z,100581.09
2023-03-20T11:28:41.866Z,100596.38
2023-03-20T11:31:11.493Z,100596.38
2023-03-20T11:33:42.865Z,100604.13
2023-03-20T11:36:20.569Z,100610.41
2023-03-20T11:38:47.496Z,100621.56
2023-03-20T11:41:19.390Z,100623.28
2023-03-20T11:43:46.172Z,100636.81
2023-03-20T11:46:13.764Z,100644.06
2023-03-20T11:48:45.874Z,100643.97
2023-03-20T11:51:21.877Z,100644.72
2023-03-20T11:53:48.474Z,100657.22
2023-03-20T11:56:23.815Z,100656.16
2023-03-20T11:59:04.232Z,100664.72
2023-03-20T12:01:44.562Z,100667.03
2023-03-20T12:04:15.835Z,100662.50
2023-03-20T12:06:47.209Z,100668.34
2023-03-20T12:09:26.665Z,100665.34
2023-03-20T12:12:03.533Z,100719.75
2023-03-20T12:14:37.652Z,100713.94
2023-03-20T12:17:32.547Z,100712.72
2023-03-20T12:20:11.264Z,100704.44
2023-03-20T12:22:49.622Z,100699.94
2023-03-20T12:25:19.123Z,100699.31
2023-03-20T12:27:53.350Z,100715.25
2023-03-20T12:30:30.594Z,100736.13
2023-03-20T12:33:13.104Z,100747.66
2023-03-20T12:35:46.395Z,100767.84
2023-03-20T12:38:34.412Z,100786.69
2023-03-20T12:41:12.751Z,100806.47
2023-03-20T12:43:50.285Z,100817.13
2023-03-20T12:46:43.279Z,100908.94
2023-03-20T12:49:15.865Z,100920.03
2023-03-20T12:52:09.327Z,100950.38
2023-03-20T12:55:10.082Z,100982.13
2023-03-20T12:58:01.234Z,100991.75
2023-03-20T13:00:40.496Z,101001.03
2023-03-20T13:03:28.952Z,101013.38
2023-03-20T13:06:44.200Z,101025.13
2023-03-20T13:09:35.695Z,101041.47
2023-03-20T13:12:40.397Z,101058.03
2023-03-20T13:15:34.346Z,101085.06
2023-03-20T13:18:18.464Z,101107.91
2023-03-20T13:21:01.524Z,101107.72
2023-03-20T13:23:33.684Z,101125.13
2023-03-20T13:26:19.670Z,101137.84
2023-03-20T13:29:02.628Z,101148.88
2023-03-20T13:31:38.458Z,101158.25
2023-03-20T13:34:20.905Z,101172.53
2023-03-20T13:37:22.311Z,101176.03
2023-03-20T13:40:20.318Z,101180.06
2023-03-20T13:43:20.972Z,101186.16
2023-03-20T13:45:52.089Z,101195.53
2023-03-20T13:48:33.967Z,101204.75
2023-03-20T13:51:37.203Z,101227.72
2023-03-20T13:54:31.930Z,101228.81
2023-03-20T13:57:10.936Z,101247.50
2023-03-20T13:59:50.480Z,101258.41
2023-03-20T14:02:36.705Z,101263.84
2023-03-20T14:05:18.773Z,101276.19
2023-03-20T14:07:47.433Z,101282.50
2023-03-20T14:10:23.460Z,101283.38
2023-03-20T14:12:55.375Z,101296.66
2023-03-20T14:15:26.890Z,101296.91
2023-03-20T14:17:53.755Z,101302.84
2023-03-20T14:20:26.937Z,101300.94
2023-03-20T14:22:53.716Z,101308.69
2023-03-20T14:25:23.769Z,101311.91
2023-03-20T14:27:57.679Z,101307.63
2023-03-20T14:30:30.656Z,101307.19
2023-03-20T14:33:05.419Z,101297.50
2023-03-20T14:35:38.212Z,101306.28
2023-03-20T14:38:30.804Z,101298.41
2023-03-20T14:41:02.364Z,101297.63
2023-03-20T14:44:20.093Z,101283.41
2023-03-20T14:46:53.320Z,101270.50
2023-03-20T14:49:46.891Z,101250.69
2023-03-20T14:52:26.651Z,101234.28
2023-03-20T14:54:54.849Z,101218.38
2023-03-20T14:57:48.790Z,101197.72
2023-03-20T15:00:22.748Z,101176.34
2023-03-20T15:02:52.906Z,101162.28
2023-03-20T15:05:32.447Z,101146.50
2023-03-20T15:08:05.903Z,101131.22
2023-03-20T15:10:37.406Z,101113.56
2023-03-20T15:13:08.185Z,101105.13
2023-03-20T15:15:34.813Z,101109.13
2023-03-20T15:18:13.943Z,101084.41
2023-03-20T15:20:45.458Z,101073.50
2023-03-20T15:23:13.624Z,101073.16
2023-03-20T15:25:46.056Z,101069.91
2023-03-20T15:28:27.806Z,101057.81
2023-03-20T15:30:59.350Z,101059.75
2023-03-20T15:33:33.200Z,101055.47
2023-03-20T15:36:09.350Z,101051.06
2023-03-20T15:38:36.868Z,101049.09
2023-03-20T15:41:08.063Z,101041.94
2023-03-20T15:43:35.893Z,101041.94
2023-03-20T15:46:17.339Z,101039.72
2023-03-20T15:48:49.250Z,101035.38
2023-03-20T15:51:17.511Z,101035.28
2023-03-20T15:53:47.487Z,101033.28
2023-03-20T15:56:19.410Z,101039.91
2023-03-20T15:58:50.796Z,101038.47
2023-03-20T16:01:23.814Z,101037.13
2023-03-20T16:03:51.907Z,101033.53
2023-03-20T16:06:21.933Z,101026.81
2023-03-20T16:09:18.082Z,101027.00
2023-03-20T16:11:54.966Z,101038.91
2023-03-20T16:14:24.885Z,101029.44
2023-03-20T16:16:54.989Z,101027.28
2023-03-20T16:19:22.308Z,101032.53
2023-03-20T16:22:02.925Z,101024.13
2023-03-20T16:24:35.984Z,101027.97
2023-03-20T16:27:07.246Z,101020.44
2023-03-20T16:29:34.230Z,101027.72
2023-03-20T16:32:06.232Z,101021.34
2023-03-20T16:34:36.324Z,101021.41
2023-03-20T16:37:20.678Z,101020.63
2023-03-20T16:39:47.393Z,101017.41
2023-03-20T16:42:26.029Z,101022.56
2023-03-20T16:44:57.978Z,101026.75
2023-03-20T16:47:34.354Z,101027.56
2023-03-20T16:50:22.165Z,101034.63
2023-03-20T16:52:57.863Z,101020.31
2023-03-20T16:55:31.818Z,101020.59
2023-03-20T16:58:05.909Z,101022.50
2023-03-20T17:00:46.033Z,101017.09
2023-03-20T17:03:16.526Z,101027.25
2023-03-20T17:06:08.413Z,101027.25
2023-03-20T17:08:40.730Z,101025.69
2023-03-20T17:11:14.442Z,101028.56
2023-03-20T17:13:41.775Z,101021.47
2023-03-20T17:16:16.867Z,101019.56
2023-03-20T17:19:20.475Z,101023.22
2023-03-20T17:21:47.908Z,101004.22
2023-03-20T17:24:16.764Z,101009.84
2023-03-20T17:26:50.059Z,101012.91
2023-03-20T17:29:16.927Z,101009.63
2023-03-20T17:31:43.632Z,101003.50
2023-03-20T17:34:14.168Z,100992.31
2023-03-20T17:36:40.888Z,100993.38
2023-03-20T17:39:07.874Z,100993.75
2023-03-20T17:41:34.684Z,100989.19
2023-03-20T17:44:01.397Z,100983.13
2023-03-20T17:46:32.370Z,100972.47
2023-03-20T17:49:07.343Z,100968.63
2023-03-20T17:51:35.324Z,100974.03
2023-03-20T17:54:02.010Z,100964.19
2023-03-20T17:56:30.311Z,100957.91
2023-03-20T17:58:57.707Z,100953.75
2023-03-20T18:01:25.408Z,100954.88
2023-03-20T18:03:52.309Z,100940.47
2023-03-20T18:06:27.125Z,100937.97
2023-03-20T18:08:55.210Z,100930.03
2023-03-20T18:11:22.433Z,100927.97
2023-03-20T18:13:49.261Z,100928.28
2023-03-20T18:16:19.174Z,100910.19
2023-03-20T18:18:46.243Z,100913.16
2023-03-20T18:21:13.698Z,100904.44
2023-03-20T18:23:40.400Z,100916.88
2023-03-20T18:26:27.600Z,100909.31
2023-03-20T18:28:55.749Z,100900.84
2023-03-20T18:31:22.938Z,100895.56
2023-03-20T18:33:52.036Z,100889.38
2023-03-20T18:36:28.110Z,100879.72
2023-03-20T18:38:54.798Z,100866.81
2023-03-20T18:41:21.826Z,100864.16
2023-03-20T18:43:49.222Z,100848.69
2023-03-20T18:46:21.392Z,100727.97
2023-03-20T18:48:49.767Z,100722.28
2023-03-20T18:51:16.517Z,100708.84
2023-03-20T18:53:44.225Z,100708.78
2023-03-20T18:56:17.409Z,100691.41
2023-03-20T18:58:44.858Z,100691.97
2023-03-20T19:01:12.888Z,100686.22
2023-03-20T19:03:41.483Z,100610.97
2023-03-20T19:06:20.497Z,100599.47
2023-03-20T19:08:48.142Z,100603.91
2023-03-20T19:11:17.831Z,100594.06
2023-03-20T19:13:54.635Z,100585.00
2023-03-20T19:16:27.047Z,100579.78
2023-03-20T19:18:55.394Z,100571.41
2023-03-20T19:21:26.473Z,100573.53
2023-03-20T19:23:57.317Z,100558.19
2023-03-20T19:26:25.913Z,100550.88
2023-03-20T19:28:54.335Z,100543.72
2023-03-20T19:31:21.763Z,100535.34
2023-03-20T19:33:49.221Z,100525.41
2023-03-20T19:36:31.561Z,100521.53
2023-03-20T19:39:00.011Z,100515.28
2023-03-20T19:41:28.784Z,100513.44
2023-03-20T19:43:57.400Z,100468.50
2023-03-20T19:46:39.066Z,100459.63
2023-03-20T19:49:17.939Z,100456.06
2023-03-20T19:51:45.182Z,100432.53
2023-03-20T19:54:12.080Z,100446.13
2023-03-20T19:56:38.821Z,100429.91
2023-03-20T19:59:05.999Z,100424.72
2023-03-20T20:01:32.758Z,100420.09
2023-03-20T20:03:59.478Z,100412.75
2023-03-20T20:06:31.113Z,100405.72
2023-03-20T20:08:59.500Z,100406.09
2023-03-20T20:11:26.235Z,100389.28
2023-03-20T20:14:10.005Z,100385.81
2023-03-20T20:16:40.044Z,100378.38
2023-03-20T20:19:06.996Z,100372.00
2023-03-20T20:24:21.013Z,100305.13
2023-03-20T20:26:54.964Z,100300.19
2023-03-20T20:29:26.918Z,100290.25
2023-03-20T20:31:53.787Z,100287.25
2023-03-20T20:39:54.380Z,100269.19
2023-03-20T20:42:21.534Z,100270.63
2023-03-20T20:44:48.786Z,100266.50
2023-03-20T20:47:16.108Z,100266.72
2023-03-20T20:49:46.014Z,100265.31
2023-03-20T20:52:13.596Z,100260.56
2023-03-20T20:54:43.166Z,100264.53
2023-03-20T20:57:11.942Z,100257.84
2023-03-20T20:59:40.924Z,100251.91
2023-03-20T21:02:12.701Z,100253.84
2023-03-20T21:04:41.007Z,100254.16
2023-03-20T21:07:13.301Z,100255.47
2023-03-20T21:09:40.691Z,100254.63
2023-03-20T21:12:09.997Z,100250.72
2023-03-20T21:14:38.386Z,100243.38
2023-03-20T21:17:06.547Z,100238.94
2023-03-20T21:19:38.113Z,100234.63
2023-03-20T21:22:09.017Z,100232.34
2023-03-20T21:24:40.583Z,100230.63
2023-03-20T21:27:14.799Z,100229.97
2023-03-20T21:29:48.881Z,100230.41
2023-03-20T21:32:19.893Z,100227.91
2023-03-20T21:34:48.700Z,100228.91
2023-03-20T21:38:25.774Z,100217.66
2023-03-20T21:40:07.353Z,100301.66
2023-03-20T21:42:37.037Z,100281.97
2023-03-20T21:46:06.715Z,100278.63
2023-03-20T21:48:31.650Z,100276.78
2023-03-20T21:51:42.374Z,100265.00
2023-03-20T21:54:35.903Z,100261.44
2023-03-20T21:57:09.745Z,100254.84
2023-03-20T22:02:07.137Z,100242.63
2023-03-20T22:07:59.650Z,100232.78
2023-03-20T22:16:27.140Z,100222.50
2023-03-20T22:22:00.046Z,100201.63
2023-03-20T22:24:59.601Z,100197.44
2023-03-20T22:33:03.632Z,100168.13
2023-03-20T22:38:55.146Z,100172.47
2023-03-20T22:46:44.799Z,100145.41
2023-03-20T22:49:12.323Z,100130.53
2023-03-20T22:51:50.713Z,100127.81
2023-03-20T22:54:24.358Z,100117.00
2023-03-20T22:56:51.042Z,100115.38
2023-03-20T22:59:17.739Z,100112.44
2023-03-20T23:01:44.424Z,100123.25
2023-03-20T23:04:11.131Z,100119.94
2023-03-20T23:06:37.832Z,100112.78
2023-03-20T23:09:14.473Z,100117.75
2023-03-20T23:11:42.010Z,100114.84
2023-03-20T23:14:18.249Z,100117.75
2023-03-20T23:16:47.111Z,100115.28
2023-03-20T23:19:13.844Z,99950.19
2023-03-20T23:21:40.588Z,99957.41
2023-03-20T23:24:07.534Z,99946.28
2023-03-20T23:26:34.206Z,99956.91
2023-03-20T23:29:03.323Z,99950.72
2023-03-20T23:31:33.437Z,99951.16
2023-03-20T23:34:00.256Z,99955.19
2023-03-20T23:36:42.694Z,99957.66
2023-03-20T23:39:11.592Z,99960.59
2023-03-20T23:42:08.364Z,99958.00
2023-03-20T23:44:25.885Z,99964.16
2023-03-20T23:46:53.054Z,99965.13
2023-03-20T23:49:19.786Z,100037.53
2023-03-20T23:51:46.590Z,100073.63
2023-03-20T23:54:13.536Z,100077.84
2023-03-20T23:56:40.405Z,100090.72
2023-03-20T23:59:18.726Z,100097.13
